Time;durP1;ratioP1;P1;durP2;ratioP2;P2;SDS_P1;SDS_P2;PMS_P1;PMS_P2;Temp;Humidity;BMP_temperature;BMP_pressure;BME280_temperature;BME280_humidity;BME280_pressure;Samples;Min_cycle;Max_cycle;Signal;HPM_P1;HPM_P2
2022/07/10 00:00:56;;;;;;;5.22;2.67;;;;;;;;;;4937490;29;20039;-83
2022/07/10 00:03:44;;;;;;;4.10;2.65;;;;;;;;;;4943562;29;20047;-80
2022/07/10 00:06:28;;;;;;;3.50;2.40;;;;;;;;;;4937089;29;20047;-84
2022/07/10 00:09:14;;;;;;;6.88;2.70;;;;;;;;;;4936865;29;20039;-81
2022/07/10 00:12:00;;;;;;;9.30;2.67;;;;;;;;;;4943437;29;20039;-84
2022/07/10 00:14:45;;;;;;;3.10;2.38;;;;;;;;;;4936918;29;20047;-80
2022/07/10 00:17:32;;;;;;;7.63;2.63;;;;;;;;;;4931289;29;20044;-81
2022/07/10 00:20:17;;;;;;;7.30;2.80;;;;;;;;;;4917697;29;20380;-83
2022/07/10 00:23:03;;;;;;;6.75;2.97;;;;;;;;;;4918220;29;20036;-83
2022/07/10 00:25:48;;;;;;;4.82;2.50;;;;;;;;;;4917555;29;20056;-83
2022/07/10 00:28:33;;;;;;;3.80;2.45;;;;;;;;;;4917711;29;20036;-82
2022/07/10 00:31:18;;;;;;;3.42;2.65;;;;;;;;;;4917738;29;20040;-83
2022/07/10 00:34:04;;;;;;;6.38;2.80;;;;;;;;;;4917193;29;20044;-82
2022/07/10 00:36:50;;;;;;;3.67;2.50;;;;;;;;;;4917708;29;20048;-82
2022/07/10 00:39:35;;;;;;;4.40;2.58;;;;;;;;;;4917645;29;20040;-83
2022/07/10 00:42:21;;;;;;;3.88;2.80;;;;;;;;;;4923785;29;20044;-82
2022/07/10 00:45:07;;;;;;;6.85;3.22;;;;;;;;;;4917922;29;20044;-82
2022/07/10 00:47:53;;;;;;;7.25;2.67;;;;;;;;;;4917055;29;20379;-81
2022/07/10 00:50:40;;;;;;;6.05;3.45;;;;;;;;;;4917473;29;20049;-85
2022/07/10 00:53:26;;;;;;;4.82;2.55;;;;;;;;;;4917350;29;20044;-81
2022/07/10 00:56:14;;;;;;;9.20;3.05;;;;;;;;;;4917464;29;20056;-83
2022/07/10 00:59:01;;;;;;;6.53;3.03;;;;;;;;;;4917675;29;20044;-81
2022/07/10 01:01:46;;;;;;;8.68;3.45;;;;;;;;;;4917293;29;20048;-84
2022/07/10 01:04:33;;;;;;;4.97;2.97;;;;;;;;;;4917325;29;20048;-84
2022/07/10 01:07:18;;;;;;;4.80;3.00;;;;;;;;;;4917158;29;20044;-83
2022/07/10 01:10:04;;;;;;;5.47;2.70;;;;;;;;;;4923720;29;20044;-83
2022/07/10 01:12:49;;;;;;;7.72;3.20;;;;;;;;;;4923667;29;20048;-82
2022/07/10 01:15:36;;;;;;;7.95;3.10;;;;;;;;;;4916744;29;20048;-84
2022/07/10 01:18:21;;;;;;;6.43;3.10;;;;;;;;;;4917231;29;20044;-85
2022/07/10 01:21:23;;;;;;;7.60;4.15;;;;;;;;;;4925769;29;20048;-84
2022/07/10 01:24:10;;;;;;;7.43;3.88;;;;;;;;;;4921002;29;20060;-82
2022/07/10 01:26:55;;;;;;;29.20;16.50;;;;;;;;;;4927676;29;20044;-83
2022/07/10 01:29:41;;;;;;;5.80;2.90;;;;;;;;;;4920742;29;20047;-82
2022/07/10 01:32:35;;;;;;;8.50;3.60;;;;;;;;;;4921184;29;20040;-85
2022/07/10 01:35:21;;;;;;;;;;;;;;;;;;4921264;29;20036;-81
2022/07/10 01:38:06;;;;;;;;;;;;;;;;;;4921126;29;19915;-82
2022/07/10 01:40:52;;;;;;;4.10;2.80;;;;;;;;;;4920730;29;19915;-81
2022/07/10 01:43:42;;;;;;;5.60;2.90;;;;;;;;;;4920603;29;20200;-80
2022/07/10 01:46:28;;;;;;;4.10;2.55;;;;;;;;;;4921081;29;20074;-83
2022/07/10 01:49:13;;;;;;;6.93;3.00;;;;;;;;;;4920726;29;20044;-82
2022/07/10 01:51:59;;;;;;;7.38;2.88;;;;;;;;;;4926637;29;20069;-84
2022/07/10 01:54:44;;;;;;;7.47;2.80;;;;;;;;;;4927348;29;20040;-81
2022/07/10 01:57:30;;;;;;;6.65;2.65;;;;;;;;;;4925850;29;20036;-83
2022/07/10 02:00:16;;;;;;;6.72;2.92;;;;;;;;;;4927099;29;20387;-82
2022/07/10 02:06:05;;;;;;;5.85;2.90;;;;;;;;;;4932990;29;20048;-82
2022/07/10 02:08:51;;;;;;;4.47;2.83;;;;;;;;;;4925899;29;20484;-84
2022/07/10 02:11:36;;;;;;;7.28;3.33;;;;;;;;;;4919991;29;20047;-84
2022/07/10 02:14:21;;;;;;;6.53;3.05;;;;;;;;;;4919980;29;20039;-83
2022/07/10 02:17:07;;;;;;;7.32;3.05;;;;;;;;;;4919934;29;20044;-83
2022/07/10 02:19:52;;;;;;;4.03;2.55;;;;;;;;;;4905526;29;20044;-82
2022/07/10 02:22:37;;;;;;;3.53;2.75;;;;;;;;;;4919977;29;20044;-83
2022/07/10 02:25:22;;;;;;;5.32;3.05;;;;;;;;;;4919992;29;20051;-82
2022/07/10 02:28:08;;;;;;;5.28;2.50;;;;;;;;;;4912204;29;20055;-84
2022/07/10 02:30:54;;;;;;;5.43;2.88;;;;;;;;;;4920203;29;20039;-83
2022/07/10 02:33:39;;;;;;;3.05;2.50;;;;;;;;;;4905289;29;20048;-84
2022/07/10 02:36:25;;;;;;;5.68;2.60;;;;;;;;;;4906006;29;20040;-84
2022/07/10 02:39:10;;;;;;;3.78;2.13;;;;;;;;;;4915951;29;20048;-85
2022/07/10 02:41:56;;;;;;;3.88;2.10;;;;;;;;;;4902909;29;20488;-83
2022/07/10 02:44:41;;;;;;;5.03;2.25;;;;;;;;;;4918319;29;20079;-84
2022/07/10 02:47:27;;;;;;;5.78;2.20;;;;;;;;;;4918221;29;20036;-83
2022/07/10 02:50:13;;;;;;;3.40;1.92;;;;;;;;;;4894169;29;20416;-83
2022/07/10 02:52:58;;;;;;;5.32;2.15;;;;;;;;;;4917179;29;20040;-82
2022/07/10 02:55:44;;;;;;;13.75;6.25;;;;;;;;;;4919133;29;20040;-83
2022/07/10 02:58:29;;;;;;;4.97;2.97;;;;;;;;;;4906779;29;20048;-82
2022/07/10 03:01:14;;;;;;;98.28;61.10;;;;;;;;;;4911642;29;20040;-85
2022/07/10 03:04:01;;;;;;;93.70;57.35;;;;;;;;;;4899630;29;20488;-86
2022/07/10 03:06:46;;;;;;;6.53;3.97;;;;;;;;;;4892741;29;20044;-84
2022/07/10 03:09:32;;;;;;;7.00;3.13;;;;;;;;;;4899787;29;20040;-83
2022/07/10 03:12:17;;;;;;;4.43;2.40;;;;;;;;;;4886714;29;20044;-84
2022/07/10 03:15:04;;;;;;;5.82;2.35;;;;;;;;;;4909459;29;20476;-82
2022/07/10 03:17:49;;;;;;;6.55;2.30;;;;;;;;;;4902849;29;20056;-85
2022/07/10 03:20:34;;;;;;;4.80;1.98;;;;;;;;;;4901927;29;20048;-82
2022/07/10 03:23:20;;;;;;;5.45;2.13;;;;;;;;;;4922600;29;20059;-81
2022/07/10 03:26:06;;;;;;;6.88;2.30;;;;;;;;;;4911278;29;20051;-83
2022/07/10 03:28:51;;;;;;;6.80;2.00;;;;;;;;;;4904713;29;20048;-82
2022/07/10 03:31:36;;;;;;;5.45;1.88;;;;;;;;;;4917527;29;20045;-85
2022/07/10 03:34:22;;;;;;;4.93;1.83;;;;;;;;;;4917776;29;20060;-84
2022/07/10 03:37:08;;;;;;;3.42;2.10;;;;;;;;;;4908041;29;20059;-82
2022/07/10 03:39:53;;;;;;;7.05;2.00;;;;;;;;;;4914478;29;20048;-84
2022/07/10 03:42:39;;;;;;;4.93;2.20;;;;;;;;;;4903537;29;20052;-81
2022/07/10 03:45:25;;;;;;;5.53;1.95;;;;;;;;;;4908014;29;20048;-87
2022/07/10 03:48:11;;;;;;;6.00;1.90;;;;;;;;;;4905029;29;20057;-85
2022/07/10 03:50:55;;;;;;;8.57;2.40;;;;;;;;;;4905720;29;20376;-84
2022/07/10 03:53:40;;;;;;;4.55;2.20;;;;;;;;;;4899444;29;20388;-85
2022/07/10 03:59:30;;;;;;;5.13;3.35;;;;;;;;;;4899417;29;20044;-81
2022/07/10 04:02:15;;;;;;;10.05;5.43;;;;;;;;;;4899337;29;20037;-83
2022/07/10 04:05:00;;;;;;;7.35;3.53;;;;;;;;;;4899219;29;20485;-82
2022/07/10 04:07:46;;;;;;;5.05;3.03;;;;;;;;;;4899380;29;20405;-84
2022/07/10 04:10:32;;;;;;;5.35;3.20;;;;;;;;;;4898889;29;20040;-80
2022/07/10 04:13:17;;;;;;;6.88;2.70;;;;;;;;;;4899185;29;20045;-84
2022/07/10 04:16:03;;;;;;;6.90;2.20;;;;;;;;;;4898987;29;20040;-82
2022/07/10 04:18:49;;;;;;;10.60;2.25;;;;;;;;;;4899166;29;20044;-82
2022/07/10 04:21:34;;;;;;;5.38;2.30;;;;;;;;;;4899079;29;20049;-83
2022/07/10 04:24:20;;;;;;;4.32;2.60;;;;;;;;;;4898637;29;20052;-81
2022/07/10 04:27:06;;;;;;;3.95;2.22;;;;;;;;;;4907591;29;20032;-84
2022/07/10 04:29:53;;;;;;;3.95;2.53;;;;;;;;;;4872436;29;20047;-83
2022/07/10 04:32:39;;;;;;;4.65;2.50;;;;;;;;;;4884769;29;20040;-83
2022/07/10 04:35:24;;;;;;;4.38;1.90;;;;;;;;;;4890930;29;20048;-83
2022/07/10 04:38:09;;;;;;;2.83;1.70;;;;;;;;;;4915078;29;20052;-83
2022/07/10 04:40:55;;;;;;;4.38;1.92;;;;;;;;;;4924145;29;20052;-82
2022/07/10 04:43:41;;;;;;;3.10;1.80;;;;;;;;;;4909945;29;20052;-84
2022/07/10 04:46:27;;;;;;;6.40;1.90;;;;;;;;;;4890943;29;20048;-84
2022/07/10 04:49:12;;;;;;;3.78;1.83;;;;;;;;;;4897616;29;20044;-85
2022/07/10 04:51:58;;;;;;;6.47;1.80;;;;;;;;;;4904316;29;20044;-82
2022/07/10 04:54:43;;;;;;;4.47;1.80;;;;;;;;;;4890165;29;20036;-82
2022/07/10 04:57:28;;;;;;;3.63;1.83;;;;;;;;;;4903959;29;20044;-83
2022/07/10 05:00:14;;;;;;;6.15;1.88;;;;;;;;;;4907799;29;20047;-88
2022/07/10 05:02:59;;;;;;;2.10;1.65;;;;;;;;;;4896229;29;20040;-82
2022/07/10 05:05:45;;;;;;;12.75;1.83;;;;;;;;;;4917764;29;20040;-83
2022/07/10 05:08:30;;;;;;;8.07;1.60;;;;;;;;;;4917211;29;20040;-84
2022/07/10 05:11:16;;;;;;;2.47;1.20;;;;;;;;;;4917231;29;20044;-85
2022/07/10 05:14:01;;;;;;;3.72;1.70;;;;;;;;;;4917069;29;20044;-84
2022/07/10 05:16:47;;;;;;;2.58;1.60;;;;;;;;;;4917242;29;20371;-85
2022/07/10 05:19:33;;;;;;;4.85;1.50;;;;;;;;;;4916435;29;20484;-84
2022/07/10 05:22:18;;;;;;;5.65;1.45;;;;;;;;;;4907305;29;20033;-81
2022/07/10 05:25:04;;;;;;;2.67;1.50;;;;;;;;;;4898473;29;20036;-85
2022/07/10 05:27:49;;;;;;;4.15;1.70;;;;;;;;;;4898431;29;20044;-82
2022/07/10 05:30:34;;;;;;;4.40;1.40;;;;;;;;;;4903787;29;20044;-84
2022/07/10 05:33:21;;;;;;;4.30;1.50;;;;;;;;;;4898461;29;20044;-83
2022/07/10 05:36:09;;;;;;;4.90;1.60;;;;;;;;;;4897686;29;20048;-84
2022/07/10 05:38:54;;;;;;;6.50;2.00;;;;;;;;;;4903469;29;20048;-81
2022/07/10 05:41:40;;;;;;;3.42;1.65;;;;;;;;;;4898288;29;20036;-84
2022/07/10 05:44:25;;;;;;;3.42;1.30;;;;;;;;;;4884280;29;20377;-82
2022/07/10 05:47:10;;;;;;;2.85;1.60;;;;;;;;;;4898134;29;20045;-84
2022/07/10 05:49:56;;;;;;;5.03;2.00;;;;;;;;;;4890292;29;20041;-82
2022/07/10 05:52:42;;;;;;;5.22;1.77;;;;;;;;;;4911024;29;20044;-83
2022/07/10 05:55:27;;;;;;;3.88;1.50;;;;;;;;;;4916708;29;20468;-85
2022/07/10 05:58:13;;;;;;;3.25;1.35;;;;;;;;;;4909473;29;20040;-85
2022/07/10 06:00:58;;;;;;;1.95;1.17;;;;;;;;;;4902712;29;20044;-82
2022/07/10 06:03:45;;;;;;;4.13;1.85;;;;;;;;;;4916688;29;20048;-82
2022/07/10 06:06:30;;;;;;;6.30;1.90;;;;;;;;;;4896172;29;20055;-82
2022/07/10 06:09:16;;;;;;;2.42;1.50;;;;;;;;;;4919980;29;20044;-83
2022/07/10 06:12:01;;;;;;;4.10;1.67;;;;;;;;;;4898094;29;20047;-83
2022/07/10 06:14:47;;;;;;;2.38;1.52;;;;;;;;;;4917632;29;20040;-83
2022/07/10 06:17:32;;;;;;;3.80;1.77;;;;;;;;;;4909817;29;20048;-84
2022/07/10 06:20:17;;;;;;;15.68;2.03;;;;;;;;;;4919559;29;20044;-85
2022/07/10 06:23:03;;;;;;;4.43;1.38;;;;;;;;;;4912321;29;20060;-84
2022/07/10 06:25:49;;;;;;;3.45;1.70;;;;;;;;;;4919648;29;20476;-84
2022/07/10 06:28:35;;;;;;;3.58;1.35;;;;;;;;;;4919312;29;20036;-85
2022/07/10 06:31:19;;;;;;;2.15;1.50;;;;;;;;;;4910597;29;20036;-84
2022/07/10 06:34:05;;;;;;;4.53;1.38;;;;;;;;;;4919552;29;20047;-85
2022/07/10 06:36:51;;;;;;;6.53;1.98;;;;;;;;;;4919604;29;20044;-82
2022/07/10 06:39:36;;;;;;;2.90;1.20;;;;;;;;;;4910270;29;20044;-85
2022/07/10 06:42:21;;;;;;;3.25;2.03;;;;;;;;;;4907161;29;20052;-83
2022/07/10 06:45:09;;;;;;;9.70;1.88;;;;;;;;;;4894070;29;20049;-84
2022/07/10 06:47:55;;;;;;;8.60;2.28;;;;;;;;;;4911539;29;20044;-83
2022/07/10 06:50:41;;;;;;;3.53;2.13;;;;;;;;;;4918744;29;20036;-85
2022/07/10 06:53:27;;;;;;;3.38;1.40;;;;;;;;;;4904829;29;20048;-86
2022/07/10 06:56:15;;;;;;;2.63;1.50;;;;;;;;;;4905994;29;20040;-86
2022/07/10 06:58:59;;;;;;;3.15;1.40;;;;;;;;;;4892064;29;20465;-83
2022/07/10 07:01:45;;;;;;;3.78;1.33;;;;;;;;;;4903993;29;20404;-84
2022/07/10 07:04:30;;;;;;;4.05;1.45;;;;;;;;;;4894630;29;20067;-86
2022/07/10 07:07:16;;;;;;;1.60;1.13;;;;;;;;;;4907332;29;20052;-84
2022/07/10 07:10:03;;;;;;;4.32;1.52;;;;;;;;;;4916776;29;20040;-88
2022/07/10 07:12:48;;;;;;;5.00;1.60;;;;;;;;;;4905974;29;20040;-83
2022/07/10 07:15:41;;;;;;;3.58;1.50;;;;;;;;;;4887646;29;20040;-86
2022/07/10 07:18:35;;;;;;;1.75;0.98;;;;;;;;;;4906004;29;20479;-84
2022/07/10 07:24:23;;;;;;;5.97;2.10;;;;;;;;;;4919692;29;20391;-87
2022/07/10 07:27:13;;;;;;;4.78;1.60;;;;;;;;;;4910374;29;20044;-85
2022/07/10 07:33:26;;;;;;;3.38;1.80;;;;;;;;;;4912870;29;20471;-84
2022/07/10 07:36:12;;;;;;;164.93;131.05;;;;;;;;;;4918549;29;20464;-85
2022/07/10 07:44:04;;;;;;;26.00;19.55;;;;;;;;;;4881406;29;20049;-83
2022/07/10 07:46:53;;;;;;;31.13;20.65;;;;;;;;;;4873099;29;20040;-83
2022/07/10 07:50:50;;;;;;;194.63;139.43;;;;;;;;;;4889417;29;20037;-82
2022/07/10 07:54:16;;;;;;;167.85;138.05;;;;;;;;;;4898964;29;20045;-87
2022/07/10 07:57:08;;;;;;;6.60;4.35;;;;;;;;;;4853247;29;20046;-84
2022/07/10 07:59:56;;;;;;;2.30;1.30;;;;;;;;;;4879494;29;20480;-81
2022/07/10 08:02:43;;;;;;;4.95;1.63;;;;;;;;;;4902463;29;20056;-88
2022/07/10 08:05:32;;;;;;;2.47;1.77;;;;;;;;;;4894835;29;20052;-84
2022/07/10 08:08:17;;;;;;;7.40;2.67;;;;;;;;;;4931840;29;20044;-86
2022/07/10 08:11:03;;;;;;;8.48;3.97;;;;;;;;;;4921698;29;20063;-86
2022/07/10 08:13:48;;;;;;;5.68;1.98;;;;;;;;;;4928961;29;20035;-86
2022/07/10 08:16:34;;;;;;;2.45;1.60;;;;;;;;;;4927047;29;20495;-84
2022/07/10 08:19:19;;;;;;;6.47;4.30;;;;;;;;;;4958930;28;20075;-84
2022/07/10 08:22:05;;;;;;;2.13;1.50;;;;;;;;;;4928901;29;20114;-81
2022/07/10 08:24:51;;;;;;;2.75;1.70;;;;;;;;;;4936952;29;20048;-82
2022/07/10 08:27:37;;;;;;;5.95;1.40;;;;;;;;;;4949382;29;20039;-82
2022/07/10 08:30:23;;;;;;;5.00;1.75;;;;;;;;;;4936316;29;20039;-81
2022/07/10 08:33:09;;;;;;;4.88;2.30;;;;;;;;;;4935752;29;20047;-84
2022/07/10 08:35:58;;;;;;;6.65;1.90;;;;;;;;;;4936246;29;20044;-84
2022/07/10 08:38:44;;;;;;;2.00;1.10;;;;;;;;;;4936879;29;20047;-82
2022/07/10 08:41:34;;;;;;;4.47;1.27;;;;;;;;;;4937277;29;20035;-84
2022/07/10 08:44:22;;;;;;;4.75;1.42;;;;;;;;;;4940553;29;20051;-85
2022/07/10 08:47:07;;;;;;;5.05;1.20;;;;;;;;;;4928708;29;20052;-84
2022/07/10 08:49:53;;;;;;;3.65;1.58;;;;;;;;;;4936276;29;20052;-84
2022/07/10 08:52:43;;;;;;;2.40;1.30;;;;;;;;;;4941804;29;20043;-82
2022/07/10 08:55:29;;;;;;;1.75;1.20;;;;;;;;;;4942528;29;20048;-81
2022/07/10 08:58:15;;;;;;;3.63;2.10;;;;;;;;;;4935591;29;20043;-82
2022/07/10 09:01:01;;;;;;;2.67;1.40;;;;;;;;;;4935916;29;20039;-83
2022/07/10 09:03:47;;;;;;;4.75;1.10;;;;;;;;;;4942490;29;20039;-83
2022/07/10 09:06:32;;;;;;;2.67;1.50;;;;;;;;;;4942225;29;20047;-82
2022/07/10 09:09:18;;;;;;;2.63;1.40;;;;;;;;;;4942704;29;20044;-83
2022/07/10 09:12:04;;;;;;;2.22;1.45;;;;;;;;;;4935626;29;20475;-85
2022/07/10 09:14:49;;;;;;;3.70;1.65;;;;;;;;;;4942539;29;20477;-84
2022/07/10 09:18:09;;;;;;;1.92;1.30;;;;;;;;;;4935361;29;20052;-83
2022/07/10 09:20:54;;;;;;;2.58;1.50;;;;;;;;;;4923823;29;20048;-81
2022/07/10 09:23:40;;;;;;;2.35;1.48;;;;;;;;;;4917422;29;20040;-84
2022/07/10 09:26:25;;;;;;;4.63;1.65;;;;;;;;;;4917006;29;20048;-84
2022/07/10 09:29:12;;;;;;;4.55;1.90;;;;;;;;;;4923678;29;20059;-82
2022/07/10 09:31:59;;;;;;;4.65;1.40;;;;;;;;;;4923672;29;20048;-81
2022/07/10 09:34:47;;;;;;;1.60;1.48;;;;;;;;;;4902804;29;20044;-84
2022/07/10 09:37:33;;;;;;;4.43;1.63;;;;;;;;;;4917056;29;20036;-82
2022/07/10 09:40:18;;;;;;;4.30;2.00;;;;;;;;;;4916559;29;20037;-84
2022/07/10 09:43:04;;;;;;;3.38;1.80;;;;;;;;;;4912639;29;20056;-83
2022/07/10 09:45:49;;;;;;;4.05;1.85;;;;;;;;;;4920832;29;20052;-82
2022/07/10 09:48:34;;;;;;;4.85;1.77;;;;;;;;;;4920379;29;20044;-83
2022/07/10 09:51:20;;;;;;;20.48;2.10;;;;;;;;;;4921391;29;20464;-82
2022/07/10 09:54:08;;;;;;;2.83;1.85;;;;;;;;;;4920406;29;20048;-83
2022/07/10 09:56:55;;;;;;;5.88;2.17;;;;;;;;;;4920500;29;20044;-82
2022/07/10 09:59:41;;;;;;;4.38;1.83;;;;;;;;;;4920503;29;20488;-83
2022/07/10 10:02:26;;;;;;;7.22;1.67;;;;;;;;;;4926340;29;20048;-84
2022/07/10 10:05:12;;;;;;;4.43;1.92;;;;;;;;;;4926894;29;20044;-82
2022/07/10 10:08:01;;;;;;;3.38;1.55;;;;;;;;;;4920203;29;20044;-81
2022/07/10 10:10:49;;;;;;;4.80;1.75;;;;;;;;;;4920442;29;20044;-82
2022/07/10 10:13:34;;;;;;;3.35;1.80;;;;;;;;;;4920415;29;20048;-82
2022/07/10 10:16:20;;;;;;;4.78;1.92;;;;;;;;;;4919684;29;20036;-82
2022/07/10 10:22:13;;;;;;;5.25;2.00;;;;;;;;;;4920040;29;20044;-83
2022/07/10 10:25:03;;;;;;;2.85;1.60;;;;;;;;;;4926640;29;20052;-84
2022/07/10 10:27:50;;;;;;;5.53;2.50;;;;;;;;;;4920217;29;20043;-86
2022/07/10 10:30:41;;;;;;;6.20;1.90;;;;;;;;;;4919458;29;20040;-83
2022/07/10 10:33:32;;;;;;;5.25;2.05;;;;;;;;;;4926791;29;20052;-82
2022/07/10 10:36:41;;;;;;;5.95;2.25;;;;;;;;;;4926661;29;20395;-85
2022/07/10 10:39:26;;;;;;;5.63;2.00;;;;;;;;;;4920067;29;20040;-83
2022/07/10 10:42:44;;;;;;;4.50;2.20;;;;;;;;;;4926587;29;20052;-83
2022/07/10 10:45:34;;;;;;;2.85;1.80;;;;;;;;;;4919780;29;20078;-83
2022/07/10 10:48:21;;;;;;;3.75;1.73;;;;;;;;;;4920099;29;20056;-83
2022/07/10 10:51:06;;;;;;;3.35;1.70;;;;;;;;;;4919010;29;20044;-81
2022/07/10 10:54:04;;;;;;;4.03;1.95;;;;;;;;;;4924672;29;20463;-82
2022/07/10 10:57:12;;;;;;;5.15;1.60;;;;;;;;;;4919062;29;20048;-81
2022/07/10 10:59:59;;;;;;;5.65;2.45;;;;;;;;;;4925711;29;20056;-82
2022/07/10 11:02:45;;;;;;;3.40;1.60;;;;;;;;;;4919784;29;20463;-80
2022/07/10 11:05:34;;;;;;;4.38;1.50;;;;;;;;;;4919265;29;20236;-81
2022/07/10 11:08:43;;;;;;;6.72;4.55;;;;;;;;;;4919438;29;20036;-82
2022/07/10 11:11:31;;;;;;;2.42;1.63;;;;;;;;;;4919217;29;20048;-82
2022/07/10 11:14:17;;;;;;;7.45;2.13;;;;;;;;;;4904708;29;20044;-83
2022/07/10 11:17:04;;;;;;;2.90;1.10;;;;;;;;;;4925149;29;20048;-83
2022/07/10 11:19:52;;;;;;;2.50;1.40;;;;;;;;;;4919339;29;20475;-83
2022/07/10 11:22:37;;;;;;;0.98;0.80;;;;;;;;;;4925982;29;20047;-83
2022/07/10 11:25:42;;;;;;;4.82;2.67;;;;;;;;;;4918986;29;20036;-83
2022/07/10 11:28:45;;;;;;;4.97;1.65;;;;;;;;;;4919138;29;20040;-85
2022/07/10 11:31:34;;;;;;;14.73;8.10;;;;;;;;;;4925119;29;20047;-82
2022/07/10 11:34:19;;;;;;;7.03;2.78;;;;;;;;;;4918875;29;20048;-82
2022/07/10 11:37:30;;;;;;;1.48;1.00;;;;;;;;;;4918745;29;20036;-83
2022/07/10 11:40:15;;;;;;;0.75;0.75;;;;;;;;;;4918591;29;20040;-81
2022/07/10 11:43:04;;;;;;;2.92;0.90;;;;;;;;;;4918853;29;20491;-83
2022/07/10 11:45:52;;;;;;;0.80;0.68;;;;;;;;;;4918671;29;20052;-81
2022/07/10 11:48:42;;;;;;;1.05;0.80;;;;;;;;;;4911115;29;20052;-82
2022/07/10 11:51:27;;;;;;;1.17;0.90;;;;;;;;;;4925490;29;20044;-83
2022/07/10 11:54:18;;;;;;;3.33;0.88;;;;;;;;;;4918549;29;20040;-82
2022/07/10 11:57:06;;;;;;;1.17;0.68;;;;;;;;;;4918328;29;20036;-80
2022/07/10 11:59:52;;;;;;;0.75;0.65;;;;;;;;;;4918314;29;20480;-82
2022/07/10 12:02:38;;;;;;;1.40;1.30;;;;;;;;;;4924371;29;20040;-81
2022/07/10 12:05:39;;;;;;;10.13;7.85;;;;;;;;;;4918317;29;20040;-81
2022/07/10 12:08:24;;;;;;;3.60;0.93;;;;;;;;;;4918117;29;20044;-82
2022/07/10 12:11:14;;;;;;;1.70;0.82;;;;;;;;;;4910065;29;20048;-80
2022/07/10 12:14:10;;;;;;;3.03;1.25;;;;;;;;;;4908589;29;20053;-82
2022/07/10 12:16:57;;;;;;;3.05;0.70;;;;;;;;;;4905704;29;20040;-82
2022/07/10 12:19:42;;;;;;;0.82;0.57;;;;;;;;;;4904194;29;20052;-82
2022/07/10 12:22:28;;;;;;;1.20;0.90;;;;;;;;;;4909486;29;20044;-81
2022/07/10 12:25:13;;;;;;;1.25;0.65;;;;;;;;;;4909609;29;20041;-83
2022/07/10 12:27:59;;;;;;;0.80;0.80;;;;;;;;;;4909682;29;20035;-82
2022/07/10 12:30:51;;;;;;;9.13;1.30;;;;;;;;;;4891831;29;20044;-83
2022/07/10 12:33:36;;;;;;;2.30;0.88;;;;;;;;;;4884962;29;20404;-84
2022/07/10 12:36:23;;;;;;;2.53;1.10;;;;;;;;;;4899297;29;20048;-83
2022/07/10 12:39:10;;;;;;;1.42;0.80;;;;;;;;;;4899502;29;20048;-82
2022/07/10 12:42:00;;;;;;;1.15;1.05;;;;;;;;;;4898892;29;20052;-83
2022/07/10 12:44:51;;;;;;;5.28;3.92;;;;;;;;;;4898904;29;20040;-86
2022/07/10 12:47:47;;;;;;;2.25;1.10;;;;;;;;;;4918332;29;20055;-81
2022/07/10 12:50:33;;;;;;;481.70;393.73;;;;;;;;;;4909532;29;20036;-82
2022/07/10 12:53:18;;;;;;;9.45;6.85;;;;;;;;;;4906586;29;20349;-83
2022/07/10 12:56:31;;;;;;;1.20;0.90;;;;;;;;;;4917356;29;20044;-82
2022/07/10 12:59:21;;;;;;;0.95;0.80;;;;;;;;;;4909803;29;20040;-86
2022/07/10 13:02:23;;;;;;;1.33;1.00;;;;;;;;;;4917979;29;20472;-82
2022/07/10 13:05:25;;;;;;;2.00;0.88;;;;;;;;;;4917932;29;20044;-84
2022/07/10 13:08:13;;;;;;;2.22;1.80;;;;;;;;;;4917853;29;20040;-82
2022/07/10 13:10:59;;;;;;;3.33;1.50;;;;;;;;;;4909503;29;20051;-85
2022/07/10 13:13:47;;;;;;;1.20;0.90;;;;;;;;;;4910149;29;20052;-84
2022/07/10 13:16:33;;;;;;;1.85;0.82;;;;;;;;;;4924691;29;20044;-85
2022/07/10 13:19:19;;;;;;;1.60;1.10;;;;;;;;;;4921922;29;20040;-83
2022/07/10 13:22:06;;;;;;;0.70;0.70;;;;;;;;;;4927540;29;20048;-83
2022/07/10 13:24:52;;;;;;;2.03;0.90;;;;;;;;;;4913410;29;20391;-82
2022/07/10 13:27:39;;;;;;;0.43;0.43;;;;;;;;;;4927898;29;20063;-81
2022/07/10 13:30:27;;;;;;;1.02;0.60;;;;;;;;;;4927154;29;20052;-81
2022/07/10 13:33:13;;;;;;;0.85;0.80;;;;;;;;;;4913675;29;20048;-82
2022/07/10 13:36:01;;;;;;;1.30;0.85;;;;;;;;;;4921277;29;20036;-80
2022/07/10 13:38:49;;;;;;;1.42;0.70;;;;;;;;;;4920774;29;20044;-79
2022/07/10 13:41:34;;;;;;;1.45;1.02;;;;;;;;;;4927667;29;20035;-82
2022/07/10 13:44:19;;;;;;;1.48;1.00;;;;;;;;;;4926788;29;20043;-84
2022/07/10 13:47:08;;;;;;;0.85;0.60;;;;;;;;;;4927244;29;20044;-84
2022/07/10 13:49:54;;;;;;;1.48;0.80;;;;;;;;;;4920616;29;20055;-84
2022/07/10 13:52:39;;;;;;;0.93;0.63;;;;;;;;;;4920581;29;20044;-82
2022/07/10 13:55:24;;;;;;;0.80;0.80;;;;;;;;;;4932212;29;20395;-81
2022/07/10 13:58:10;;;;;;;1.08;0.80;;;;;;;;;;4926314;29;20028;-82
2022/07/10 14:00:55;;;;;;;2.88;1.00;;;;;;;;;;4927053;29;20044;-82
2022/07/10 14:03:41;;;;;;;0.70;0.68;;;;;;;;;;4926837;29;20044;-83
2022/07/10 14:06:26;;;;;;;0.80;0.70;;;;;;;;;;4926803;29;20052;-83
2022/07/10 14:09:12;;;;;;;0.68;0.68;;;;;;;;;;4927329;29;20495;-81
2022/07/10 14:12:00;;;;;;;1.30;0.80;;;;;;;;;;4926426;29;20380;-82
2022/07/10 14:14:45;;;;;;;0.93;0.90;;;;;;;;;;4929168;29;20476;-84
2022/07/10 14:17:30;;;;;;;3.28;0.90;;;;;;;;;;4924717;29;20052;-82
2022/07/10 14:20:17;;;;;;;1.13;0.75;;;;;;;;;;4912200;29;20048;-82
2022/07/10 14:23:02;;;;;;;1.20;0.90;;;;;;;;;;4912392;29;20052;-83
2022/07/10 14:25:48;;;;;;;1.45;0.88;;;;;;;;;;4926116;29;20384;-84
2022/07/10 14:28:34;;;;;;;2.88;0.90;;;;;;;;;;4919392;29;20040;-85
2022/07/10 14:31:21;;;;;;;0.93;0.70;;;;;;;;;;4905855;29;20040;-81
2022/07/10 14:34:06;;;;;;;2.35;0.65;;;;;;;;;;4900760;29;20044;-83
2022/07/10 14:36:52;;;;;;;7.22;0.77;;;;;;;;;;4907402;29;20086;-83
2022/07/10 14:39:37;;;;;;;0.50;0.50;;;;;;;;;;4907183;29;20049;-82
2022/07/10 14:42:23;;;;;;;0.50;0.50;;;;;;;;;;4907208;29;20048;-82
2022/07/10 14:45:09;;;;;;;2.67;0.95;;;;;;;;;;4907509;29;20048;-83
2022/07/10 14:47:55;;;;;;;1.20;0.85;;;;;;;;;;4900499;29;20053;-84
2022/07/10 14:50:41;;;;;;;1.30;0.70;;;;;;;;;;4910528;29;20040;-83
2022/07/10 14:53:26;;;;;;;0.95;0.77;;;;;;;;;;4900542;29;20036;-81
2022/07/10 14:56:12;;;;;;;3.88;0.70;;;;;;;;;;4906689;29;20096;-82
2022/07/10 14:58:57;;;;;;;4.55;0.70;;;;;;;;;;4901021;29;20389;-81
2022/07/10 15:01:43;;;;;;;1.58;0.90;;;;;;;;;;4900315;29;20045;-82
2022/07/10 15:04:28;;;;;;;0.60;0.60;;;;;;;;;;4900975;29;20052;-82
2022/07/10 15:07:17;;;;;;;0.65;0.63;;;;;;;;;;4900765;29;20048;-84
2022/07/10 15:10:03;;;;;;;1.52;0.65;;;;;;;;;;4900474;29;20044;-83
2022/07/10 15:12:48;;;;;;;0.70;0.70;;;;;;;;;;4900475;29;20036;-81
2022/07/10 15:15:34;;;;;;;2.95;0.60;;;;;;;;;;4900212;29;20053;-82
2022/07/10 15:18:20;;;;;;;0.45;0.45;;;;;;;;;;4902489;29;20056;-82
2022/07/10 15:21:07;;;;;;;0.82;0.80;;;;;;;;;;4900088;29;20066;-82
2022/07/10 15:23:52;;;;;;;1.55;0.85;;;;;;;;;;4899918;29;20131;-83
2022/07/10 15:26:38;;;;;;;0.82;0.63;;;;;;;;;;4900244;29;20041;-83
2022/07/10 15:29:24;;;;;;;0.55;0.55;;;;;;;;;;4899884;29;20377;-83
2022/07/10 15:32:10;;;;;;;3.80;0.90;;;;;;;;;;4906605;29;20040;-84
2022/07/10 15:34:59;;;;;;;0.82;0.60;;;;;;;;;;4892491;29;20425;-83
2022/07/10 15:37:45;;;;;;;2.55;1.00;;;;;;;;;;4885491;29;20044;-82
2022/07/10 15:40:34;;;;;;;1.65;0.50;;;;;;;;;;4885126;29;20480;-84
2022/07/10 15:43:19;;;;;;;3.13;0.82;;;;;;;;;;4899805;29;20052;-83
2022/07/10 15:46:06;;;;;;;0.70;0.68;;;;;;;;;;4898236;29;20040;-83
2022/07/10 15:48:52;;;;;;;3.28;1.13;;;;;;;;;;4885779;29;20048;-84
2022/07/10 15:51:38;;;;;;;1.00;0.75;;;;;;;;;;4885213;29;20037;-82
2022/07/10 15:54:23;;;;;;;1.38;0.80;;;;;;;;;;4891870;29;20053;-84
2022/07/10 15:57:12;;;;;;;1.05;0.70;;;;;;;;;;4898977;29;20389;-83
2022/07/10 15:59:57;;;;;;;1.27;0.75;;;;;;;;;;4891821;29;20494;-82
2022/07/10 16:02:43;;;;;;;3.15;1.20;;;;;;;;;;4899275;29;20036;-82
2022/07/10 16:05:28;;;;;;;2.75;0.90;;;;;;;;;;4899140;29;20040;-83
2022/07/10 16:08:14;;;;;;;5.18;1.15;;;;;;;;;;4906107;29;20052;-82
2022/07/10 16:10:59;;;;;;;5.25;1.20;;;;;;;;;;4899595;29;20048;-81
2022/07/10 16:13:45;;;;;;;1.77;0.95;;;;;;;;;;4905384;29;20044;-83
2022/07/10 16:16:31;;;;;;;4.97;0.70;;;;;;;;;;4899215;29;20040;-81
2022/07/10 16:19:16;;;;;;;0.75;0.75;;;;;;;;;;4898896;29;20048;-82
2022/07/10 16:22:02;;;;;;;2.78;0.77;;;;;;;;;;4904687;29;20491;-81
2022/07/10 16:27:51;;;;;;;1.02;0.77;;;;;;;;;;4910435;29;20048;-83
2022/07/10 16:30:37;;;;;;;1.40;0.80;;;;;;;;;;4899191;29;20044;-81
2022/07/10 16:33:23;;;;;;;1.50;0.85;;;;;;;;;;4898683;29;20060;-82
2022/07/10 16:36:08;;;;;;;2.65;1.10;;;;;;;;;;4908638;29;20040;-82
2022/07/10 16:38:53;;;;;;;1.42;0.80;;;;;;;;;;4923446;29;20040;-83
2022/07/10 16:41:38;;;;;;;1.55;0.90;;;;;;;;;;4917676;29;20049;-83
2022/07/10 16:44:24;;;;;;;3.53;1.20;;;;;;;;;;4918463;29;20044;-82
2022/07/10 16:47:10;;;;;;;1.60;0.90;;;;;;;;;;4917759;29;20051;-83
2022/07/10 16:49:57;;;;;;;1.00;0.90;;;;;;;;;;4924213;29;20048;-82
2022/07/10 16:52:42;;;;;;;0.70;0.70;;;;;;;;;;4924157;29;20467;-84
2022/07/10 16:55:29;;;;;;;3.05;1.05;;;;;;;;;;4916925;29;20055;-82
2022/07/10 16:58:14;;;;;;;1.38;1.00;;;;;;;;;;4917570;29;20052;-83
2022/07/10 17:01:01;;;;;;;1.23;0.95;;;;;;;;;;4909146;29;20047;-82
2022/07/10 17:03:46;;;;;;;2.45;1.58;;;;;;;;;;4917491;29;20040;-82
2022/07/10 17:06:32;;;;;;;3.65;1.40;;;;;;;;;;4917105;29;20044;-83